Time;durP1;ratioP1;P1;durP2;ratioP2;P2;SDS_P1;SDS_P2;PMS_P1;PMS_P2;Temp;Humidity;BMP_temperature;BMP_pressure;BME280_temperature;BME280_humidity;BME280_pressure;Samples;Min_cycle;Max_cycle;Signal;HPM_P1;HPM_P2
2021/11/19 00:00:47;;;;;;;10.13;7.20;;;;;;;8.12;85.26;101067.83;1686875;84;21495;-70
2021/11/19 00:03:16;;;;;;;8.28;7.47;;;;;;;8.13;85.20;101051.08;1705416;83;21497;-70
2021/11/19 00:05:44;;;;;;;9.85;8.98;;;;;;;8.14;85.24;101061.81;1705289;83;21560;-70
2021/11/19 00:08:12;;;;;;;11.00;8.25;;;;;;;8.16;85.20;101055.38;1684495;84;21076;-70
2021/11/19 00:10:39;;;;;;;9.00;8.30;;;;;;;8.16;85.28;101057.52;1687955;85;20932;-70
2021/11/19 00:13:06;;;;;;;9.90;8.90;;;;;;;8.17;85.33;101055.38;1707453;83;21342;-70
2021/11/19 00:15:34;;;;;;;9.30;8.50;;;;;;;8.18;85.35;101049.80;1680740;84;20919;-70
2021/11/19 00:18:04;;;;;;;8.85;8.18;;;;;;;8.19;85.38;101051.09;1691602;84;21422;-70
2021/11/19 00:20:31;;;;;;;9.30;8.45;;;;;;;8.19;85.43;101056.24;1678860;85;20964;-70
2021/11/19 00:23:04;;;;;;;9.15;8.30;;;;;;;8.20;85.44;101055.38;1690431;84;20913;-70
2021/11/19 00:25:32;;;;;;;10.30;9.35;;;;;;;8.21;85.40;101053.66;1664259;84;21423;-70
2021/11/19 00:28:02;;;;;;;27.82;23.47;;;;;;;8.21;85.46;101050.66;1677366;85;20922;-70
2021/11/19 00:30:30;;;;;;;94.32;88.52;;;;;;;8.24;85.48;101042.08;1658447;86;21059;-70
2021/11/19 00:32:56;;;;;;;76.72;72.17;;;;;;;8.24;85.48;101050.66;1692198;84;21293;-70
2021/11/19 00:35:23;;;;;;;74.20;69.70;;;;;;;8.24;85.49;101040.36;1707240;83;21407;-70
2021/11/19 00:37:55;;;;;;;92.02;86.15;;;;;;;8.25;85.52;101042.08;1688031;84;20912;-70
2021/11/19 00:40:47;;;;;;;96.05;90.42;;;;;;;8.27;85.56;101053.67;1705025;83;21051;-70
2021/11/19 00:43:13;;;;;;;84.35;79.40;;;;;;;8.28;85.56;101048.95;1687932;84;20949;-70
2021/11/19 00:45:39;;;;;;;71.02;66.80;;;;;;;8.29;85.64;101049.38;1692267;83;25868;-70
2021/11/19 00:48:07;;;;;;;74.97;70.33;;;;;;;8.29;85.59;101052.81;1679979;85;20912;-70
2021/11/19 00:50:39;;;;;;;70.92;66.53;;;;;;;8.30;85.68;101054.96;1678974;85;20892;-70
2021/11/19 00:53:06;;;;;;;83.65;78.65;;;;;;;8.32;85.69;101060.94;1678468;84;21481;-70
2021/11/19 00:55:32;;;;;;;;;;;;;;;8.32;85.67;101062.23;1655814;85;20892;-70
2021/11/19 00:57:58;;;;;;;88.10;82.70;;;;;;;8.33;85.77;101063.98;1707668;83;20123;-70
2021/11/19 01:00:34;;;;;;;103.60;97.40;;;;;;;8.33;85.75;101065.27;1687133;84;21437;-70
2021/11/19 01:03:00;;;;;;;81.53;76.37;;;;;;;8.35;85.74;101071.71;1694777;83;21028;-70
2021/11/19 01:05:26;;;;;;;73.70;68.77;;;;;;;8.35;85.73;101060.12;1670030;85;20884;-70
2021/11/19 01:07:53;;;;;;;77.40;72.33;;;;;;;8.37;85.83;101063.55;1691455;83;21000;-70
2021/11/19 01:10:25;;;;;;;77.82;72.72;;;;;;;8.37;85.80;101062.27;1677644;84;21040;-70
2021/11/19 01:12:51;;;;;;;9.83;8.88;;;;;;;8.38;85.79;101066.56;1676969;85;20941;-70
2021/11/19 01:15:26;;;;;;;12.60;9.80;;;;;;;8.38;85.86;101063.98;1661874;85;21054;-70
2021/11/19 01:18:00;;;;;;;11.25;10.25;;;;;;;8.38;85.87;101055.82;1694867;84;21139;-70
2021/11/19 01:20:39;;;;;;;13.03;11.68;;;;;;;8.39;85.92;101048.95;1702806;83;21059;-70
2021/11/19 01:23:13;;;;;;;14.23;13.08;;;;;;;8.39;85.89;101046.38;1686308;84;21088;-70
2021/11/19 01:25:41;;;;;;;14.05;13.05;;;;;;;8.38;85.91;101053.25;1677945;84;21027;-70
2021/11/19 01:28:08;;;;;;;12.10;11.20;;;;;;;8.39;85.94;101051.53;1705498;83;21016;-70
2021/11/19 01:30:39;;;;;;;13.43;12.43;;;;;;;8.37;85.94;101055.39;1681793;84;21610;-70
2021/11/19 01:33:07;;;;;;;22.67;20.80;;;;;;;8.39;86.00;101048.95;1674919;85;21061;-70
2021/11/19 01:35:34;;;;;;;53.13;49.55;;;;;;;8.39;86.05;101040.80;1692723;84;21007;-70
2021/11/19 01:38:05;;;;;;;56.33;52.98;;;;;;;8.39;86.03;101047.66;1698161;83;21028;-70
2021/11/19 01:40:36;;;;;;;51.63;48.42;;;;;;;8.39;86.04;101054.11;1705995;83;21088;-70
2021/11/19 01:43:07;;;;;;;48.10;45.17;;;;;;;8.39;86.12;101049.81;1692671;83;21045;-70
2021/11/19 01:45:39;;;;;;;39.60;37.13;;;;;;;8.40;86.12;101041.66;1697762;83;21128;-70
2021/11/19 01:48:10;;;;;;;42.70;39.88;;;;;;;8.41;86.09;101044.66;1704840;84;21465;-70
2021/11/19 01:50:47;;;;;;;43.73;41.08;;;;;;;8.41;86.10;101049.38;1658566;85;21083;-70
2021/11/19 01:53:47;;;;;;;50.92;47.80;;;;;;;8.39;86.12;101042.08;1613339;87;21143;-70
2021/11/19 01:56:25;;;;;;;44.20;40.90;;;;;;;8.39;86.19;101040.80;1655204;86;20896;-70
2021/11/19 01:59:07;;;;;;;9.33;6.12;;;;;;;8.41;86.18;101033.92;1609881;86;20963;-70
2021/11/19 02:01:44;;;;;;;10.18;6.78;;;;;;;8.41;86.19;101024.05;1643148;86;21349;-70
2021/11/19 02:04:15;;;;;;;6.78;5.87;;;;;;;8.42;86.29;101020.61;1655517;85;20916;-70
2021/11/19 02:06:50;;;;;;;6.60;6.00;;;;;;;8.43;86.28;101018.45;1657157;86;20956;-70
2021/11/19 02:09:26;;;;;;;10.23;7.40;;;;;;;8.43;86.33;101024.91;1659616;85;20896;-70
2021/11/19 02:12:24;;;;;;;5.92;5.30;;;;;;;8.44;86.27;101021.03;1647099;85;21404;-70
2021/11/19 02:15:15;;;;;;;6.15;5.60;;;;;;;8.45;86.32;101025.76;1658602;85;21082;-70
2021/11/19 02:17:47;;;;;;;7.92;5.95;;;;;;;8.47;86.38;101035.64;1657863;85;21609;-70
2021/11/19 02:20:37;;;;;;;5.80;5.30;;;;;;;8.48;86.42;101032.20;1652129;86;21110;-70
2021/11/19 02:23:23;;;;;;;24.87;22.62;;;;;;;8.48;86.44;101033.06;1652128;86;20900;-70
2021/11/19 02:26:14;;;;;;;6.30;5.45;;;;;;;8.50;86.44;101029.19;1626682;86;21301;-70
2021/11/19 02:28:43;;;;;;;6.47;5.87;;;;;;;8.51;86.45;101032.20;1649568;86;20906;-70
2021/11/19 02:31:25;;;;;;;6.95;6.28;;;;;;;8.50;86.49;101031.34;1647151;86;20947;-70
2021/11/19 02:33:55;;;;;;;7.95;6.10;;;;;;;8.52;86.44;101036.06;1642006;86;20943;-70
2021/11/19 02:36:38;;;;;;;6.97;6.03;;;;;;;8.54;86.51;101028.33;1649656;85;21515;-70
2021/11/19 02:39:10;;;;;;;6.03;5.47;;;;;;;8.56;86.58;101023.60;1659059;86;21486;-70
2021/11/19 02:41:45;;;;;;;8.65;6.12;;;;;;;8.58;86.53;101028.33;1657788;85;21079;-70
2021/11/19 02:44:10;;;;;;;6.60;6.00;;;;;;;8.60;86.54;101024.45;1637714;85;21462;-70
2021/11/19 02:46:42;;;;;;;6.80;6.03;;;;;;;8.61;86.60;101024.45;1658210;85;20999;-70
2021/11/19 02:49:09;;;;;;;9.28;6.08;;;;;;;8.64;86.61;101026.17;1659322;85;20931;-70
2021/11/19 02:51:36;;;;;;;;;;;;;;;8.65;86.61;101023.16;1645577;85;21110;-70
2021/11/19 02:54:09;;;;;;;6.95;6.08;;;;;;;8.66;86.78;101024.88;1658108;85;20180;-70
2021/11/19 02:56:39;;;;;;;6.60;6.00;;;;;;;8.67;86.68;101026.17;1658083;85;21031;-70
2021/11/19 02:59:08;;;;;;;7.30;6.60;;;;;;;8.69;86.71;101022.30;1650118;85;20942;-70
2021/11/19 03:01:42;;;;;;;7.08;6.37;;;;;;;8.71;86.73;101028.31;1646545;85;21038;-70
2021/11/19 03:04:27;;;;;;;7.28;6.08;;;;;;;8.72;86.75;101019.28;1657228;85;21039;-70
2021/11/19 03:06:56;;;;;;;8.73;5.80;;;;;;;8.74;86.80;101016.70;1626334;87;21116;-70
2021/11/19 03:09:35;;;;;;;8.03;6.20;;;;;;;8.76;86.77;101023.58;1647252;86;20897;-70
2021/11/19 03:12:03;;;;;;;11.10;6.65;;;;;;;8.78;86.75;101022.28;1659446;85;21561;-70
2021/11/19 03:14:30;;;;;;;7.08;6.37;;;;;;;8.78;86.73;101016.70;1658543;85;20954;-70
2021/11/19 03:16:58;;;;;;;5.78;5.30;;;;;;;8.80;86.85;101020.56;1659109;85;20983;-70
2021/11/19 03:19:25;;;;;;;5.85;5.35;;;;;;;8.81;86.75;101015.40;1642485;85;21530;-70
2021/11/19 03:21:51;;;;;;;6.20;5.60;;;;;;;8.82;86.84;101015.83;1649765;86;20964;-70
2021/11/19 03:24:20;;;;;;;8.50;5.33;;;;;;;8.82;86.86;101013.25;1648869;86;20935;-70
2021/11/19 03:26:49;;;;;;;6.10;5.53;;;;;;;8.84;86.89;101025.67;1659486;85;20968;-70
2021/11/19 03:29:16;;;;;;;5.85;5.35;;;;;;;8.86;86.93;101028.25;1660851;85;20979;-70
2021/11/19 03:31:44;;;;;;;7.12;5.42;;;;;;;8.87;86.93;101032.11;1658591;85;20955;-70
2021/11/19 03:34:12;;;;;;;7.25;5.30;;;;;;;8.89;86.95;101024.38;1657799;85;21038;-70
2021/11/19 03:36:45;;;;;;;5.33;4.92;;;;;;;8.90;86.99;101025.66;1657193;86;20963;-70
2021/11/19 03:39:12;;;;;;;5.62;5.05;;;;;;;8.92;87.02;101024.37;1658487;85;20971;-70
2021/11/19 03:41:41;;;;;;;5.15;4.75;;;;;;;8.94;87.00;101018.77;1664032;84;21440;-70
2021/11/19 03:44:15;;;;;;;5.37;4.87;;;;;;;8.94;86.93;101027.37;1684669;84;20921;-70
2021/11/19 03:46:47;;;;;;;4.78;4.33;;;;;;;8.97;87.02;101022.63;1686096;84;20913;-70
2021/11/19 03:49:13;;;;;;;5.47;4.65;;;;;;;8.97;87.01;101020.05;1689375;84;20934;-70
2021/11/19 03:51:44;;;;;;;7.77;4.60;;;;;;;8.99;87.09;101019.62;1680854;83;20817;-70
2021/11/19 03:54:13;;;;;;;5.50;4.85;;;;;;;9.01;87.11;101025.63;1705720;83;20968;-70
2021/11/19 03:56:39;;;;;;;5.20;4.80;;;;;;;9.03;87.12;101020.47;1706303;83;20897;-70
2021/11/19 03:59:07;;;;;;;4.50;4.20;;;;;;;9.03;87.10;101014.88;1694238;83;20913;-70
2021/11/19 04:01:38;;;;;;;4.87;4.47;;;;;;;8.95;87.05;101005.02;1681870;85;20912;-70
2021/11/19 04:04:05;;;;;;;4.58;4.08;;;;;;;9.08;87.15;101022.60;1705313;83;20963;-70
2021/11/19 04:06:31;;;;;;;;;;;;;;;9.07;87.15;101023.03;1708838;84;20906;-70
2021/11/19 04:08:57;;;;;;;196.87;35.58;;;;;;;9.10;87.20;101024.75;1706517;82;20210;-70
2021/11/19 04:11:25;;;;;;;6.83;5.28;;;;;;;9.11;87.21;101022.16;1706688;83;20874;-70
2021/11/19 04:13:51;;;;;;;3.77;3.33;;;;;;;9.13;87.25;101025.59;1698990;84;20941;-70
2021/11/19 04:16:23;;;;;;;5.20;3.92;;;;;;;9.14;87.22;101035.05;1680466;85;21412;-70
2021/11/19 04:18:49;;;;;;;3.25;3.05;;;;;;;9.16;87.26;101037.63;1705552;83;20961;-70
2021/11/19 04:21:17;;;;;;;3.62;3.10;;;;;;;9.18;87.21;101044.93;1705181;83;21032;-70
2021/11/19 04:23:47;;;;;;;3.25;3.00;;;;;;;9.19;87.36;101028.59;1691764;83;21033;-70
2021/11/19 04:26:13;;;;;;;3.70;3.40;;;;;;;9.20;87.31;101042.77;1704249;83;21042;-70
2021/11/19 04:28:39;;;;;;;3.50;3.00;;;;;;;9.21;87.30;101052.23;1697338;83;21057;-70
2021/11/19 04:31:21;;;;;;;2.95;2.70;;;;;;;9.23;87.33;101055.66;1672628;85;21026;-70
2021/11/19 04:33:49;;;;;;;3.27;2.98;;;;;;;9.25;87.39;101059.53;1705335;83;21048;-70
2021/11/19 04:36:16;;;;;;;3.27;2.87;;;;;;;9.26;87.35;101056.09;1698225;84;20977;-70
2021/11/19 04:38:43;;;;;;;2.80;2.62;;;;;;;9.29;87.45;101063.38;1695705;83;21276;-70
2021/11/19 04:41:09;;;;;;;126.15;21.48;;;;;;;9.30;87.35;101059.08;1704247;84;20945;-70
2021/11/19 04:43:37;;;;;;;4.60;4.30;;;;;;;9.20;87.35;101031.16;1682963;84;21035;-70
2021/11/19 04:46:06;;;;;;;3.35;2.92;;;;;;;9.33;87.43;101062.94;1671955;84;21018;-70
2021/11/19 04:48:34;;;;;;;3.58;2.90;;;;;;;9.34;87.38;101052.19;1682228;84;21047;-70
2021/11/19 04:51:09;;;;;;;2.90;2.50;;;;;;;9.34;87.42;101050.47;1669860;84;21351;-70
2021/11/19 04:53:36;;;;;;;7.28;6.42;;;;;;;9.36;87.49;101049.17;1688562;84;21519;-70
2021/11/19 04:56:05;;;;;;;2.58;2.37;;;;;;;9.36;87.45;101049.99;1704705;83;21092;-70
2021/11/19 04:58:33;;;;;;;6.15;5.75;;;;;;;9.38;87.50;101041.81;1686497;83;21446;-70
2021/11/19 05:01:05;;;;;;;2.75;2.55;;;;;;;9.38;87.55;101039.66;1704324;84;21107;-70
2021/11/19 05:03:32;;;;;;;2.83;2.62;;;;;;;9.40;87.58;101044.39;1693914;83;21093;-70
2021/11/19 05:05:58;;;;;;;;;;;;;;;9.40;87.56;101040.08;1707987;84;20973;-70
2021/11/19 05:08:25;;;;;;;2.30;2.10;;;;;;;9.41;87.62;101035.34;1691115;83;20229;-70
2021/11/19 05:10:52;;;;;;;3.20;3.00;;;;;;;9.43;87.63;101034.05;1682341;85;21043;-70
2021/11/19 05:13:19;;;;;;;3.27;2.98;;;;;;;9.42;87.62;101030.61;1683024;84;22226;-70
2021/11/19 05:15:55;;;;;;;4.42;3.87;;;;;;;9.43;87.62;101034.91;1683778;84;21594;-70
2021/11/19 05:18:25;;;;;;;4.25;2.90;;;;;;;9.44;87.58;101037.91;1684117;84;21562;-68
2021/11/19 05:20:53;;;;;;;4.00;3.67;;;;;;;9.45;87.60;101031.03;1699173;83;21068;-70
2021/11/19 05:23:20;;;;;;;3.15;2.90;;;;;;;9.45;87.60;101039.63;1673761;84;20900;-70
2021/11/19 05:25:46;;;;;;;4.25;3.83;;;;;;;9.45;87.61;101042.64;1685071;84;25890;-69
2021/11/19 05:28:16;;;;;;;3.45;3.10;;;;;;;9.46;87.63;101040.06;1706070;84;20898;-69
2021/11/19 05:30:42;;;;;;;3.40;3.10;;;;;;;9.47;87.68;101037.05;1669007;85;20904;-70
2021/11/19 05:33:19;;;;;;;4.15;3.87;;;;;;;9.48;87.66;101037.47;1706168;83;21403;-70
2021/11/19 05:35:46;;;;;;;3.60;3.30;;;;;;;9.48;87.69;101042.63;1706402;84;20898;-67
2021/11/19 05:38:12;;;;;;;3.30;3.00;;;;;;;9.49;87.73;101044.34;1690424;84;21357;-67
2021/11/19 05:40:39;;;;;;;3.40;3.10;;;;;;;9.50;87.70;101039.61;1706047;83;21901;-68
2021/11/19 05:43:05;;;;;;;4.10;3.37;;;;;;;9.51;87.75;101041.33;1693797;84;21044;-68
2021/11/19 05:45:33;;;;;;;2.85;2.65;;;;;;;9.51;87.73;101043.91;1681307;85;20932;-68
2021/11/19 05:48:01;;;;;;;3.12;2.90;;;;;;;9.53;87.68;101044.76;1704069;83;20897;-68
2021/11/19 05:50:30;;;;;;;3.00;2.80;;;;;;;9.54;87.77;101051.20;1696952;84;20909;-68
2021/11/19 05:53:01;;;;;;;2.67;2.47;;;;;;;9.55;87.75;101044.32;1684399;85;20856;-68
2021/11/19 05:55:31;;;;;;;2.87;2.58;;;;;;;9.55;87.78;101053.36;1705403;84;21278;-68
2021/11/19 05:57:58;;;;;;;2.92;2.40;;;;;;;9.56;87.84;101058.52;1686056;85;21036;-68
2021/11/19 06:00:33;;;;;;;;;;;;;;;9.58;87.78;101046.45;1708404;83;21127;-68
2021/11/19 06:03:00;;;;;;;4.87;2.47;;;;;;;9.60;87.91;101054.20;1698966;83;20190;-67
2021/11/19 06:05:27;;;;;;;3.00;2.72;;;;;;;9.60;87.86;101051.18;1704895;84;21040;-68
2021/11/19 06:07:53;;;;;;;2.83;2.62;;;;;;;9.62;87.90;101051.17;1676236;84;21078;-68
2021/11/19 06:10:27;;;;;;;3.33;2.47;;;;;;;9.62;87.91;101049.45;1678599;85;21428;-68
2021/11/19 06:12:55;;;;;;;2.58;2.27;;;;;;;9.64;87.91;101057.19;1698328;83;20881;-68
2021/11/19 06:15:29;;;;;;;2.30;2.10;;;;;;;9.66;87.94;101058.03;1699328;84;21468;-68
2021/11/19 06:18:00;;;;;;;2.67;2.15;;;;;;;9.68;87.94;101052.43;1700481;83;21053;-68
2021/11/19 06:20:42;;;;;;;2.12;1.90;;;;;;;9.69;87.93;101061.89;1683220;84;20976;-68
2021/11/19 06:23:13;;;;;;;3.22;2.55;;;;;;;9.71;87.94;101047.69;1686339;85;21074;-68
2021/11/19 06:25:42;;;;;;;3.15;2.85;;;;;;;9.72;87.95;101050.69;1690510;83;22127;-68
2021/11/19 06:28:16;;;;;;;2.55;2.35;;;;;;;9.72;87.96;101048.97;1679311;85;20964;-68
2021/11/19 06:30:43;;;;;;;2.67;2.47;;;;;;;9.73;87.97;101054.55;1685577;84;21601;-67
2021/11/19 06:33:09;;;;;;;2.08;1.90;;;;;;;9.75;87.99;101057.98;1682105;84;21105;-68
2021/11/19 06:35:35;;;;;;;2.05;1.90;;;;;;;9.77;88.04;101051.52;1684567;83;21040;-68
2021/11/19 06:38:03;;;;;;;2.00;1.80;;;;;;;9.79;88.02;101053.23;1685793;85;21107;-68
2021/11/19 06:40:36;;;;;;;6.15;1.75;;;;;;;9.79;88.04;101044.63;1684550;85;21261;-68
2021/11/19 06:43:05;;;;;;;1.70;1.60;;;;;;;9.81;88.07;101050.64;1705999;83;21028;-68
2021/11/19 06:45:34;;;;;;;3.22;2.60;;;;;;;9.83;88.02;101047.61;1704652;82;20933;-68
2021/11/19 06:48:06;;;;;;;2.08;1.98;;;;;;;9.84;88.08;101048.90;1705359;84;21004;-68
2021/11/19 06:50:36;;;;;;;3.30;1.75;;;;;;;9.86;88.05;101058.79;1683529;84;21596;-67
2021/11/19 06:53:04;;;;;;;1.80;1.70;;;;;;;9.88;88.04;101057.45;1701970;84;20969;-68
2021/11/19 06:55:33;;;;;;;2.15;2.02;;;;;;;9.89;88.09;101078.55;1696557;83;21497;-68
2021/11/19 06:57:59;;;;;;;5.92;5.42;;;;;;;9.91;88.14;101080.69;1661190;85;21018;-68
2021/11/19 07:00:30;;;;;;;15.72;12.65;;;;;;;9.92;88.14;101082.41;1677501;84;20983;-68
2021/11/19 07:02:58;;;;;;;37.15;27.05;;;;;;;9.93;88.11;101087.56;1704439;83;21000;-68
2021/11/19 07:05:25;;;;;;;13.98;11.97;;;;;;;9.94;88.17;101076.80;1706854;84;20862;-68
2021/11/19 07:07:57;;;;;;;43.90;31.00;;;;;;;9.95;88.08;101084.97;1704982;82;409620;-68
2021/11/19 07:10:27;;;;;;;12.47;10.03;;;;;;;9.98;88.20;101087.53;1698068;83;20945;-68
2021/11/19 07:12:53;;;;;;;35.92;26.90;;;;;;;10.01;88.21;101098.28;1686058;85;21008;-68
2021/11/19 07:15:19;;;;;;;10.63;6.40;;;;;;;10.02;88.17;101102.58;1685035;84;20845;-68
2021/11/19 07:17:47;;;;;;;13.58;10.65;;;;;;;10.04;88.18;101100.84;1695824;84;26906;-67
2021/11/19 07:20:18;;;;;;;10.40;9.60;;;;;;;10.06;88.20;101102.99;1685534;85;20916;-68
2021/11/19 07:22:46;;;;;;;4.22;3.92;;;;;;;10.07;88.24;101112.02;1673439;85;20871;-68
2021/11/19 07:25:16;;;;;;;3.95;3.65;;;;;;;10.08;88.26;101106.42;1706048;84;20941;-68
2021/11/19 07:27:44;;;;;;;5.25;4.85;;;;;;;10.10;88.25;101105.98;1694570;84;20870;-68
2021/11/19 07:30:19;;;;;;;12.10;5.20;;;;;;;10.12;88.29;101114.58;1697602;82;20922;-68
2021/11/19 07:32:45;;;;;;;3.70;3.37;;;;;;;10.13;88.27;101116.30;1696352;83;21775;-68
2021/11/19 07:35:11;;;;;;;3.30;3.00;;;;;;;10.15;88.26;101107.67;1706188;83;20897;-68
2021/11/19 07:37:38;;;;;;;;;;;;;;;10.18;88.38;101097.75;1689534;85;20900;-67
2021/11/19 07:40:07;;;;;;;5.67;2.85;;;;;;;10.20;88.45;101102.50;1633152;85;20122;-68
2021/11/19 07:42:34;;;;;;;3.12;2.55;;;;;;;10.22;88.32;101106.80;1672415;85;20931;-67
2021/11/19 07:45:00;;;;;;;3.30;3.00;;;;;;;10.25;88.38;101096.88;1678992;85;21447;-68
2021/11/19 07:47:27;;;;;;;3.73;3.40;;;;;;;10.28;88.36;101106.76;1682427;84;20884;-68
2021/11/19 07:50:07;;;;;;;2.95;2.75;;;;;;;10.32;88.41;101104.15;1703066;83;21730;-68
2021/11/19 07:52:33;;;;;;;3.05;2.85;;;;;;;10.34;88.41;101108.88;1683560;83;21025;-68
2021/11/19 07:54:59;;;;;;;4.37;3.00;;;;;;;10.36;88.36;101114.89;1697420;84;21042;-68
2021/11/19 07:57:26;;;;;;;3.22;2.95;;;;;;;10.38;88.39;101107.98;1700105;84;20968;-68
2021/11/19 07:59:51;;;;;;;3.80;3.53;;;;;;;10.38;88.34;101119.18;1699138;83;20913;-68
2021/11/19 08:02:17;;;;;;;5.60;4.03;;;;;;;10.41;88.37;101123.44;1704733;84;21765;-67
2021/11/19 08:04:45;;;;;;;3.77;3.47;;;;;;;10.42;88.41;101118.26;1702150;83;21024;-68
2021/11/19 08:07:12;;;;;;;3.02;2.77;;;;;;;10.43;88.36;101119.98;1698824;84;21432;-68
2021/11/19 08:09:38;;;;;;;2.92;2.72;;;;;;;10.44;88.33;101108.77;1704923;83;21052;-68
2021/11/19 08:12:09;;;;;;;2.25;1.95;;;;;;;10.43;88.39;101121.27;1682262;85;21439;-68
2021/11/19 08:14:36;;;;;;;5.70;2.47;;;;;;;10.46;88.38;101117.37;1698093;83;21503;-68
2021/11/19 08:17:26;;;;;;;5.30;2.52;;;;;;;10.45;88.37;101119.53;1703826;84;21116;-68
2021/11/19 08:19:55;;;;;;;3.08;2.85;;;;;;;10.45;88.37;101122.55;1703283;84;21025;-68
2021/11/19 08:22:21;;;;;;;3.35;3.15;;;;;;;10.47;88.46;101124.26;1704358;83;21382;-68
2021/11/19 08:24:48;;;;;;;2.80;2.60;;;;;;;10.49;88.47;101122.95;1704394;83;20874;-68
2021/11/19 08:27:17;;;;;;;;;;;;;;;10.50;88.46;101125.96;1706993;83;21117;-68
2021/11/19 08:29:47;;;;;;;2.02;1.92;;;;;;;10.50;88.58;101124.23;1706320;84;20131;-68
2021/11/19 08:32:14;;;;;;;3.52;2.40;;;;;;;10.53;88.48;101124.21;1699604;83;21818;-68
2021/11/19 08:34:41;;;;;;;2.90;2.70;;;;;;;10.52;88.49;101118.62;1698879;83;21879;-68
2021/11/19 08:37:08;;;;;;;3.08;2.65;;;;;;;10.53;88.63;101117.75;1704929;83;20902;-68
2021/11/19 08:39:35;;;;;;;2.40;2.25;;;;;;;10.54;88.86;101120.75;1703750;83;21024;-68
2021/11/19 08:42:01;;;;;;;2.62;2.40;;;;;;;10.56;88.86;101117.72;1693826;83;21011;-68
2021/11/19 08:44:28;;;;;;;4.55;3.17;;;;;;;10.57;88.69;101119.88;1694271;83;21024;-68
2021/11/19 08:46:56;;;;;;;5.17;3.47;;;;;;;10.58;88.63;101126.33;1681248;85;21035;-67
2021/11/19 08:49:27;;;;;;;3.77;3.47;;;;;;;10.60;88.63;101122.44;1701922;83;21072;-68
2021/11/19 08:51:54;;;;;;;5.60;2.95;;;;;;;10.63;88.63;101117.67;1700857;83;21104;-68
2021/11/19 08:54:21;;;;;;;3.08;2.77;;;;;;;10.65;88.57;101127.14;1695684;84;21072;-68
2021/11/19 08:56:50;;;;;;;;;;;;;;;10.67;88.61;101123.25;1706913;83;21024;-68
2021/11/19 08:59:20;;;;;;;4.03;2.98;;;;;;;10.69;88.61;101124.09;1703931;84;20445;-68
2021/11/19 09:01:51;;;;;;;3.42;3.12;;;;;;;10.68;88.60;101121.94;1704161;83;22288;-68
2021/11/19 09:04:19;;;;;;;4.50;3.83;;;;;;;10.70;88.64;101120.64;1703604;84;21441;-68
2021/11/19 09:06:45;;;;;;;5.95;4.55;;;;;;;10.71;88.61;101114.16;1704652;83;21572;-68
2021/11/19 09:09:12;;;;;;;3.57;3.27;;;;;;;10.73;88.61;101119.32;1703129;83;20937;-68
2021/11/19 09:11:40;;;;;;;3.45;3.00;;;;;;;10.76;88.65;101110.23;1677225;84;21030;-68
2021/11/19 09:14:07;;;;;;;3.20;3.00;;;;;;;10.77;88.64;101111.95;1705726;83;20937;-68
2021/11/19 09:16:39;;;;;;;3.45;3.25;;;;;;;10.80;88.67;101117.10;1705853;84;21395;-68
2021/11/19 09:19:14;;;;;;;3.90;3.40;;;;;;;10.80;88.65;101115.37;1706194;84;21448;-68
2021/11/19 09:21:48;;;;;;;3.45;3.15;;;;;;;10.81;88.62;101122.27;1703155;84;20886;-68
2021/11/19 09:24:23;;;;;;;6.67;3.77;;;;;;;10.84;88.65;101129.14;1705017;84;21473;-68
2021/11/19 09:26:57;;;;;;;3.70;3.40;;;;;;;10.86;88.66;101131.28;1703113;84;20934;-68
2021/11/19 09:29:37;;;;;;;3.22;3.02;;;;;;;10.87;88.65;101131.27;1702290;83;21409;-68
2021/11/19 09:32:06;;;;;;;3.92;3.27;;;;;;;10.89;88.64;101126.94;1704373;83;21393;-68
2021/11/19 09:34:38;;;;;;;4.00;3.60;;;;;;;10.90;88.62;101123.91;1700450;83;20922;-67
2021/11/19 09:37:05;;;;;;;4.75;3.58;;;;;;;10.90;88.60;101131.67;1686019;84;21503;-68
2021/11/19 09:39:31;;;;;;;4.22;3.52;;;;;;;10.89;88.61;101133.41;1683100;84;20995;-68
2021/11/19 09:42:37;;;;;;;3.83;3.42;;;;;;;10.90;88.62;101142.02;1698144;84;21438;-68
2021/11/19 09:45:17;;;;;;;3.85;3.55;;;;;;;10.89;88.62;101146.34;1654298;84;21075;-68
2021/11/19 09:48:01;;;;;;;3.42;3.15;;;;;;;10.90;88.61;101139.00;1700904;84;21092;-68
2021/11/19 09:51:17;;;;;;;3.25;2.87;;;;;;;10.92;88.65;101146.71;1671629;84;21082;-68
2021/11/19 09:54:08;;;;;;;3.00;2.77;;;;;;;10.92;88.64;101151.89;1693942;83;21576;-68
2021/11/19 09:56:59;;;;;;;220.60;39.18;;;;;;;10.93;88.68;101144.55;1700438;82;21025;-68
2021/11/19 09:59:34;;;;;;;3.47;3.22;;;;;;;10.92;88.68;101143.69;1681675;83;21028;-68
2021/11/19 10:02:36;;;;;;;4.42;3.25;;;;;;;10.92;88.71;101135.93;1674061;83;21082;-67
2021/11/19 10:05:33;;;;;;;3.20;2.95;;;;;;;10.94;88.71;101135.48;1702887;82;21970;-68
2021/11/19 10:08:23;;;;;;;5.22;3.65;;;;;;;10.97;88.70;101138.91;1697409;82;316968;-67
2021/11/19 10:11:03;;;;;;;3.87;3.58;;;;;;;10.95;88.71;101139.78;1703173;83;20954;-68
2021/11/19 10:13:54;;;;;;;4.40;3.62;;;;;;;10.97;88.70;101148.83;1697152;84;21311;-68
2021/11/19 10:16:59;;;;;;;4.50;3.45;;;;;;;10.97;88.69;101150.12;1700657;83;20914;-67
2021/11/19 10:19:50;;;;;;;11.57;10.38;;;;;;;10.95;88.70;101138.48;1637817;83;20994;-68
2021/11/19 10:22:31;;;;;;;8.60;4.28;;;;;;;10.95;88.66;101144.95;1668452;85;21003;-68
2021/11/19 10:25:25;;;;;;;5.17;4.00;;;;;;;10.95;88.70;101152.72;1706376;82;21015;-68
2021/11/19 10:27:57;;;;;;;7.28;4.72;;;;;;;10.96;88.71;101145.81;1697332;82;20878;-68
2021/11/19 10:30:38;;;;;;;4.45;4.08;;;;;;;10.97;88.72;101146.23;1701335;82;20906;-68
2021/11/19 10:33:30;;;;;;;5.50;5.00;;;;;;;10.99;88.73;101150.11;1676348;83;20877;-67
2021/11/19 10:36:36;;;;;;;6.60;5.78;;;;;;;10.99;88.73;101141.91;1680083;84;20948;-68
2021/11/19 10:39:13;;;;;;;5.37;4.67;;;;;;;10.97;88.67;101134.59;1701804;84;20889;-68
2021/11/19 10:42:26;;;;;;;6.37;5.15;;;;;;;10.97;88.73;101136.33;1695941;82;20894;-68
2021/11/19 10:45:38;;;;;;;8.43;5.40;;;;;;;10.98;88.75;101144.07;1705108;82;20903;-68
2021/11/19 10:48:16;;;;;;;12.85;8.03;;;;;;;11.00;88.75;101141.03;1697716;82;21084;-68
2021/11/19 10:51:22;;;;;;;7.62;6.92;;;;;;;11.02;88.76;101144.91;1701030;82;21037;-68
2021/11/19 10:54:00;;;;;;;5.67;4.67;;;;;;;11.02;88.77;101139.29;1658715;86;20900;-68
2021/11/19 10:56:43;;;;;;;6.85;4.85;;;;;;;11.03;88.73;101142.30;1632821;86;20992;-68
2021/11/19 10:59:33;;;;;;;7.78;6.92;;;;;;;11.03;88.75;101138.86;1659042;85;20904;-68
2021/11/19 11:02:10;;;;;;;11.30;10.18;;;;;;;11.04;88.80;101129.78;1654605;86;20845;-68
2021/11/19 11:04:59;;;;;;;8.25;7.55;;;;;;;11.04;88.78;101137.55;1681636;84;20917;-68
2021/11/19 11:07:34;;;;;;;6.67;5.60;;;;;;;11.05;88.78;101137.97;1676003;85;20897;-68
2021/11/19 11:10:19;;;;;;;5.87;5.08;;;;;;;11.06;88.75;101135.80;1657923;85;21248;-68
2021/11/19 11:12:52;;;;;;;6.67;4.15;;;;;;;11.06;88.77;101125.45;1675300;85;20856;-68
2021/11/19 11:15:37;;;;;;;7.55;6.50;;;;;;;11.05;88.78;101131.50;1677666;83;20913;-67
2021/11/19 11:18:15;;;;;;;6.85;5.72;;;;;;;11.05;88.79;101127.62;1658748;84;20980;-68
2021/11/19 11:20:58;;;;;;;7.05;6.37;;;;;;;11.06;88.80;101118.13;1657017;85;21035;-68
2021/11/19 11:23:48;;;;;;;6.00;5.45;;;;;;;11.06;88.82;101122.00;1670137;83;615369;-68
2021/11/19 11:26:22;;;;;;;7.53;5.35;;;;;;;11.07;88.80;101125.88;1677120;83;21088;-68
2021/11/19 11:28:56;;;;;;;5.65;4.30;;;;;;;11.06;88.79;101122.86;1654380;85;21030;-68
2021/11/19 11:31:36;;;;;;;8.50;4.87;;;;;;;11.07;88.83;101119.84;1649221;86;20931;-68
2021/11/19 11:34:23;;;;;;;5.87;4.67;;;;;;;11.08;88.82;101125.44;1655944;86;21042;-67
2021/11/19 11:37:17;;;;;;;7.87;6.00;;;;;;;11.08;88.84;101130.17;1656480;85;21043;-68
2021/11/19 11:40:06;;;;;;;12.37;11.18;;;;;;;11.10;88.88;101131.45;1652072;86;21114;-68
2021/11/19 11:42:38;;;;;;;5.47;4.92;;;;;;;11.11;88.87;101139.64;1654055;86;21030;-68
2021/11/19 11:45:33;;;;;;;7.12;5.97;;;;;;;11.12;88.85;101137.04;1651664;85;20972;-68
2021/11/19 11:48:39;;;;;;;7.60;5.33;;;;;;;11.13;88.84;101132.72;1671192;85;20906;-68
2021/11/19 11:51:14;;;;;;;3.85;3.55;;;;;;;11.13;88.88;101123.23;1674419;85;21059;-68
2021/11/19 11:53:55;;;;;;;10.18;9.18;;;;;;;11.13;88.86;101122.37;1693476;84;21140;-72
2021/11/19 11:56:32;;;;;;;5.50;5.00;;;;;;;11.14;88.86;101117.61;1689365;83;20949;-67